Sierra Leyre — C6DL3 — position and weather

sailwx.info

Track history (hours):
 
Tides and Currents Weather Stations Pressure Air Temp Water Temp Dewpoint Dewpoint Depression Visibility Wind Speed Wind Dir Waves Ship Positions

Sierra Leyre

Last reported at 2018-Feb-14 19:52 UTC. Time now 2018-Apr-21 17:13 UTC.
Position N 05°11' E 000°26'.
Warning: this ship's position is months out of date.

Length 117 m; draft 6.3 m.

Type: Ship. MMSI: 311000709.

Date/timePositionNaut miles runAvg speedWind from/ knotsBaromVisibWave heightAir tempDewpointWater temp
2018-Feb-14 19:52N 05°11' E 000°26'513.6
2018-Feb-14 19:30N 05°15' E 000°23'713.6
2018-Feb-14 19:00N 05°20' E 000°19'713.6
2018-Feb-14 18:30N 05°25' E 000°14'713.7
2018-Feb-14 18:00N 05°30' E 000°09'713.8
2018-Feb-14 17:30N 05°34' E 000°04'4 8.9
2018-Feb-14 17:00N 05°38' E 000°01'0 0.6
2018-Feb-14 16:30N 05°38' E 000°01'0 0.0
2018-Feb-14 16:00N 05°38' E 000°01'0 0.0
2018-Feb-14 15:30N 05°38' E 000°01'0 0.0
2018-Feb-14 14:59N 05°38' E 000°01'0 0.0
2018-Feb-14 14:30N 05°38' E 000°01'0 0.0
2018-Feb-14 14:00N 05°38' E 000°01'0 0.0
2018-Feb-14 13:30N 05°38' E 000°01'0 0.0
2018-Feb-14 13:00N 05°38' E 000°01'0 0.0
2018-Feb-14 12:27N 05°38' E 000°01'0 0.0
2018-Feb-14 12:01N 05°38' E 000°01'0 0.0
2018-Feb-14 11:30N 05°38' E 000°01'0 0.0
2018-Feb-14 11:00N 05°38' E 000°01'0 0.0
2018-Feb-14 10:30N 05°38' E 000°01'0 0.0
2018-Feb-14 10:00N 05°38' E 000°01'0 0.0
2018-Feb-14 09:30N 05°38' E 000°01'0 0.0
2018-Feb-14 09:00N 05°38' E 000°01'0 0.0
2018-Feb-14 08:26N 05°38' E 000°01'0 0.0
2018-Feb-14 08:00N 05°38' E 000°01'0 0.0
2018-Feb-14 07:30N 05°38' E 000°01'0 0.0
2018-Feb-14 07:00N 05°38' E 000°01'0 0.0
2018-Feb-14 06:30N 05°38' E 000°01'0 0.0
2018-Feb-14 05:59N 05°38' E 000°01'0 0.0
2018-Feb-14 05:28N 05°38' E 000°01'0 0.0
2018-Feb-14 05:00N 05°38' E 000°01'0 0.0
2018-Feb-14 04:30N 05°38' E 000°01'0 0.0
2018-Feb-14 04:00N 05°38' E 000°01'0 0.0
2018-Feb-14 03:31N 05°38' E 000°01'0 0.0
2018-Feb-14 02:59N 05°38' E 000°01'0 0.0
2018-Feb-14 02:30N 05°38' E 000°01'0 0.0
2018-Feb-14 01:58N 05°38' E 000°01'0 0.0
2018-Feb-14 01:30N 05°38' E 000°01'0 0.0
2018-Feb-14 00:59N 05°38' E 000°01'1 1.4
2018-Feb-14 00:30N 05°38' E 000°01'1 2.3
2018-Feb-13 23:54N 05°38' E 000°03'1 1.8
2018-Feb-13 23:29N 05°38' E 000°03'2 3.9
2018-Feb-13 23:00N 05°36' E 000°03'0 0.1
2018-Feb-13 21:30N 05°36' E 000°03'0 0.0
2018-Feb-13 20:43N 05°36' E 000°03'0 0.0
2018-Feb-13 16:16N 05°36' E 000°04'0 0.1
2018-Feb-13 15:51N 05°36' E 000°03'0 0.1
2018-Feb-13 15:04N 05°36' E 000°04'0 0.0
2018-Feb-13 14:39N 05°36' E 000°04'0 0.0
2018-Feb-13 14:18N 05°36' E 000°04'0 0.0
2018-Feb-13 13:45N 05°36' E 000°04'0 0.0
2018-Feb-13 13:30N 05°36' E 000°04'0 0.0
2018-Feb-13 12:43N 05°36' E 000°04'0 0.0
2018-Feb-13 10:11N 05°36' E 000°04'0 0.0
2018-Feb-13 08:35N 05°36' E 000°04'0 0.0
2018-Feb-13 08:17N 05°36' E 000°04'0 0.0
2018-Feb-13 06:06N 05°36' E 000°04'0 0.0
2018-Feb-13 05:49N 05°36' E 000°04'0 0.0
2018-Feb-13 05:24N 05°36' E 000°04'0 0.0
2018-Feb-13 01:53N 05°36' E 000°04'0 0.0
2018-Feb-13 00:34N 05°36' E 000°04'0 0.0
2018-Feb-13 00:16N 05°36' E 000°04'0 0.0
2018-Feb-12 23:30N 05°36' E 000°04'0 0.0
2018-Feb-12 22:49N 05°36' E 000°04'0 0.0
2018-Feb-12 21:34N 05°36' E 000°04'0 0.0
2018-Feb-12 20:55N 05°36' E 000°04'0 0.1
2018-Feb-12 20:03N 05°36' E 000°03'0 0.2
2018-Feb-12 20:00N 05°36' E 000°03'0 0.8
2018-Feb-12 19:30N 05°36' E 000°04'3 5.2
2018-Feb-12 19:00N 05°38' E 000°02'1 2.9
2018-Feb-12 18:30N 05°38' E 000°01'0 0.0
2018-Feb-12 18:00N 05°38' E 000°01'0 0.0
2018-Feb-12 17:30N 05°38' E 000°01'0 0.0
2018-Feb-12 17:00N 05°38' E 000°01'0 0.0
2018-Feb-12 16:30N 05°38' E 000°01'0 0.0
2018-Feb-12 16:00N 05°38' E 000°01'0 0.0
2018-Feb-12 15:30N 05°38' E 000°01'0 0.0
2018-Feb-12 15:00N 05°38' E 000°01'0 0.0
2018-Feb-12 14:30N 05°38' E 000°01'0 0.0
2018-Feb-12 13:57N 05°38' E 000°01'0 0.0
2018-Feb-12 13:30N 05°38' E 000°01'0 0.0
2018-Feb-12 13:00N 05°38' E 000°01'0 0.0
2018-Feb-12 12:31N 05°38' E 000°01'0 0.0
2018-Feb-12 11:58N 05°38' E 000°01'0 0.0
2018-Feb-12 11:30N 05°38' E 000°01'0 0.0
2018-Feb-12 11:00N 05°38' E 000°01'0 0.0
2018-Feb-12 10:30N 05°38' E 000°01'0 0.0
2018-Feb-12 10:00N 05°38' E 000°01'0 0.0
2018-Feb-12 09:30N 05°38' E 000°01'0 0.0
2018-Feb-12 08:59N 05°38' E 000°01'0 0.0
2018-Feb-12 08:30N 05°38' E 000°01'0 0.0
2018-Feb-12 08:00N 05°38' E 000°01'0 0.0
2018-Feb-12 07:30N 05°38' E 000°01'0 0.0
2018-Feb-12 07:00N 05°38' E 000°01'0 0.0
2018-Feb-12 06:29N 05°38' E 000°01'0 0.0
2018-Feb-12 06:00N 05°38' E 000°01'0 0.0
2018-Feb-12 05:30N 05°38' E 000°01'0 0.0
2018-Feb-12 05:00N 05°38' E 000°01'0 0.0
2018-Feb-12 04:30N 05°38' E 000°01'0 0.0
2018-Feb-12 04:00N 05°38' E 000°01'0 0.0
2018-Feb-12 03:30N 05°38' E 000°01'0 0.0
2018-Feb-12 03:00N 05°38' E 000°01'0 0.0
2018-Feb-12 02:29N 05°38' E 000°01'0 0.0
2018-Feb-12 02:00N 05°38' E 000°01'0 0.0
2018-Feb-12 01:30N 05°38' E 000°01'0 0.0
2018-Feb-12 01:00N 05°38' E 000°01'0 0.0
2018-Feb-12 00:29N 05°38' E 000°01'0 0.0
2018-Feb-12 00:00N 05°38' E 000°01'0 0.0
2018-Feb-11 23:30N 05°38' E 000°01'0 0.0
2018-Feb-11 23:00N 05°38' E 000°01'0 0.0
2018-Feb-11 22:30N 05°38' E 000°01'0 0.0
2018-Feb-11 21:55N 05°38' E 000°01'0 0.0
2018-Feb-11 21:31N 05°38' E 000°01'0 0.0
2018-Feb-11 21:00N 05°38' E 000°01'0 0.0
2018-Feb-11 20:29N 05°38' E 000°01'0 0.0
2018-Feb-11 19:59N 05°38' E 000°01'0 0.0
2018-Feb-11 19:30N 05°38' E 000°01'0 0.0
2018-Feb-11 19:00N 05°38' E 000°01'0 0.0
2018-Feb-11 18:30N 05°38' E 000°01'0 0.0
2018-Feb-11 18:00N 05°38' E 000°01'0 0.0
2018-Feb-11 17:30N 05°38' E 000°01'0 0.0
2018-Feb-11 17:00N 05°38' E 000°01'0 0.0
2018-Feb-11 16:30N 05°38' E 000°01'0 0.0
2018-Feb-11 16:00N 05°38' E 000°01'0 0.4
2018-Feb-11 15:30N 05°38' E 000°01'2 3.6
2018-Feb-11 15:00N 05°38' E 000°03'2 4.5
2018-Feb-11 14:30N 05°36' E 000°04'3 5.1
2018-Feb-11 14:00N 05°34' E 000°05'4 8.6
2018-Feb-11 13:30N 05°30' E 000°08'510.4
2018-Feb-11 13:00N 05°26' E 000°11'612.9
2018-Feb-11 12:30N 05°21' E 000°15'612.5
2018-Feb-11 12:00N 05°16' E 000°19'612.4
2018-Feb-11 11:30N 05°11' E 000°22'  
Track history (hours):
 
Tides and Currents Weather Stations Pressure Air Temp Water Temp Dewpoint Dewpoint Depression Visibility Wind Speed Wind Dir Waves Ship Positions

Sierra Leyre

Last reported at 2018-Feb-14 19:52 UTC. Time now 2018-Apr-21 17:13 UTC.
Position N 05°11' E 000°26'.
Warning: this ship's position is months out of date.

Length 117 m; draft 6.3 m.

Type: Ship. MMSI: 311000709.

Date/timePositionNaut miles runAvg speedWind from/ knotsBaromVisibWave heightAir tempDewpointWater temp
2018-Feb-14 19:52N 05°11' E 000°26'513.6
2018-Feb-14 19:30N 05°15' E 000°23'713.6
2018-Feb-14 19:00N 05°20' E 000°19'713.6
2018-Feb-14 18:30N 05°25' E 000°14'713.7
2018-Feb-14 18:00N 05°30' E 000°09'713.8
2018-Feb-14 17:30N 05°34' E 000°04'4 8.9
2018-Feb-14 17:00N 05°38' E 000°01'0 0.6
2018-Feb-14 16:30N 05°38' E 000°01'0 0.0
2018-Feb-14 16:00N 05°38' E 000°01'0 0.0
2018-Feb-14 15:30N 05°38' E 000°01'0 0.0
2018-Feb-14 14:59N 05°38' E 000°01'0 0.0
2018-Feb-14 14:30N 05°38' E 000°01'0 0.0
2018-Feb-14 14:00N 05°38' E 000°01'0 0.0
2018-Feb-14 13:30N 05°38' E 000°01'0 0.0
2018-Feb-14 13:00N 05°38' E 000°01'0 0.0
2018-Feb-14 12:27N 05°38' E 000°01'0 0.0
2018-Feb-14 12:01N 05°38' E 000°01'0 0.0
2018-Feb-14 11:30N 05°38' E 000°01'0 0.0
2018-Feb-14 11:00N 05°38' E 000°01'0 0.0
2018-Feb-14 10:30N 05°38' E 000°01'0 0.0
2018-Feb-14 10:00N 05°38' E 000°01'0 0.0
2018-Feb-14 09:30N 05°38' E 000°01'0 0.0
2018-Feb-14 09:00N 05°38' E 000°01'0 0.0
2018-Feb-14 08:26N 05°38' E 000°01'0 0.0
2018-Feb-14 08:00N 05°38' E 000°01'0 0.0
2018-Feb-14 07:30N 05°38' E 000°01'0 0.0
2018-Feb-14 07:00N 05°38' E 000°01'0 0.0
2018-Feb-14 06:30N 05°38' E 000°01'0 0.0
2018-Feb-14 05:59N 05°38' E 000°01'0 0.0
2018-Feb-14 05:28N 05°38' E 000°01'0 0.0
2018-Feb-14 05:00N 05°38' E 000°01'0 0.0
2018-Feb-14 04:30N 05°38' E 000°01'0 0.0
2018-Feb-14 04:00N 05°38' E 000°01'0 0.0
2018-Feb-14 03:31N 05°38' E 000°01'0 0.0
2018-Feb-14 02:59N 05°38' E 000°01'0 0.0
2018-Feb-14 02:30N 05°38' E 000°01'0 0.0
2018-Feb-14 01:58N 05°38' E 000°01'0 0.0
2018-Feb-14 01:30N 05°38' E 000°01'0 0.0
2018-Feb-14 00:59N 05°38' E 000°01'1 1.4
2018-Feb-14 00:30N 05°38' E 000°01'1 2.3
2018-Feb-13 23:54N 05°38' E 000°03'1 1.8
2018-Feb-13 23:29N 05°38' E 000°03'2 3.9
2018-Feb-13 23:00N 05°36' E 000°03'0 0.1
2018-Feb-13 21:30N 05°36' E 000°03'0 0.0
2018-Feb-13 20:43N 05°36' E 000°03'0 0.0
2018-Feb-13 16:16N 05°36' E 000°04'0 0.1
2018-Feb-13 15:51N 05°36' E 000°03'0 0.1
2018-Feb-13 15:04N 05°36' E 000°04'0 0.0
2018-Feb-13 14:39N 05°36' E 000°04'0 0.0
2018-Feb-13 14:18N 05°36' E 000°04'0 0.0
2018-Feb-13 13:45N 05°36' E 000°04'0 0.0
2018-Feb-13 13:30N 05°36' E 000°04'0 0.0
2018-Feb-13 12:43N 05°36' E 000°04'0 0.0
2018-Feb-13 10:11N 05°36' E 000°04'0 0.0
2018-Feb-13 08:35N 05°36' E 000°04'0 0.0
2018-Feb-13 08:17N 05°36' E 000°04'0 0.0
2018-Feb-13 06:06N 05°36' E 000°04'0 0.0
2018-Feb-13 05:49N 05°36' E 000°04'0 0.0
2018-Feb-13 05:24N 05°36' E 000°04'0 0.0
2018-Feb-13 01:53N 05°36' E 000°04'0 0.0
2018-Feb-13 00:34N 05°36' E 000°04'0 0.0
2018-Feb-13 00:16N 05°36' E 000°04'0 0.0
2018-Feb-12 23:30N 05°36' E 000°04'0 0.0
2018-Feb-12 22:49N 05°36' E 000°04'0 0.0
2018-Feb-12 21:34N 05°36' E 000°04'0 0.0
2018-Feb-12 20:55N 05°36' E 000°04'0 0.1
2018-Feb-12 20:03N 05°36' E 000°03'0 0.2
2018-Feb-12 20:00N 05°36' E 000°03'0 0.8
2018-Feb-12 19:30N 05°36' E 000°04'3 5.2
2018-Feb-12 19:00N 05°38' E 000°02'1 2.9
2018-Feb-12 18:30N 05°38' E 000°01'0 0.0
2018-Feb-12 18:00N 05°38' E 000°01'0 0.0
2018-Feb-12 17:30N 05°38' E 000°01'0 0.0
2018-Feb-12 17:00N 05°38' E 000°01'0 0.0
2018-Feb-12 16:30N 05°38' E 000°01'0 0.0
2018-Feb-12 16:00N 05°38' E 000°01'0 0.0
2018-Feb-12 15:30N 05°38' E 000°01'0 0.0
2018-Feb-12 15:00N 05°38' E 000°01'0 0.0
2018-Feb-12 14:30N 05°38' E 000°01'0 0.0
2018-Feb-12 13:57N 05°38' E 000°01'0 0.0
2018-Feb-12 13:30N 05°38' E 000°01'0 0.0
2018-Feb-12 13:00N 05°38' E 000°01'0 0.0
2018-Feb-12 12:31N 05°38' E 000°01'0 0.0
2018-Feb-12 11:58N 05°38' E 000°01'0 0.0
2018-Feb-12 11:30N 05°38' E 000°01'0 0.0
2018-Feb-12 11:00N 05°38' E 000°01'0 0.0
2018-Feb-12 10:30N 05°38' E 000°01'0 0.0
2018-Feb-12 10:00N 05°38' E 000°01'0 0.0
2018-Feb-12 09:30N 05°38' E 000°01'0 0.0
2018-Feb-12 08:59N 05°38' E 000°01'0 0.0
2018-Feb-12 08:30N 05°38' E 000°01'0 0.0
2018-Feb-12 08:00N 05°38' E 000°01'0 0.0
2018-Feb-12 07:30N 05°38' E 000°01'0 0.0
2018-Feb-12 07:00N 05°38' E 000°01'0 0.0
2018-Feb-12 06:29N 05°38' E 000°01'0 0.0
2018-Feb-12 06:00N 05°38' E 000°01'0 0.0
2018-Feb-12 05:30N 05°38' E 000°01'0 0.0
2018-Feb-12 05:00N 05°38' E 000°01'0 0.0
2018-Feb-12 04:30N 05°38' E 000°01'0 0.0
2018-Feb-12 04:00N 05°38' E 000°01'0 0.0
2018-Feb-12 03:30N 05°38' E 000°01'0 0.0
2018-Feb-12 03:00N 05°38' E 000°01'0 0.0
2018-Feb-12 02:29N 05°38' E 000°01'0 0.0
2018-Feb-12 02:00N 05°38' E 000°01'0 0.0
2018-Feb-12 01:30N 05°38' E 000°01'0 0.0
2018-Feb-12 01:00N 05°38' E 000°01'0 0.0
2018-Feb-12 00:29N 05°38' E 000°01'0 0.0
2018-Feb-12 00:00N 05°38' E 000°01'0 0.0
2018-Feb-11 23:30N 05°38' E 000°01'0 0.0
2018-Feb-11 23:00N 05°38' E 000°01'0 0.0
2018-Feb-11 22:30N 05°38' E 000°01'0 0.0
2018-Feb-11 21:55N 05°38' E 000°01'0 0.0
2018-Feb-11 21:31N 05°38' E 000°01'0 0.0
2018-Feb-11 21:00N 05°38' E 000°01'0 0.0
2018-Feb-11 20:29N 05°38' E 000°01'0 0.0
2018-Feb-11 19:59N 05°38' E 000°01'0 0.0
2018-Feb-11 19:30N 05°38' E 000°01'0 0.0
2018-Feb-11 19:00N 05°38' E 000°01'0 0.0
2018-Feb-11 18:30N 05°38' E 000°01'0 0.0
2018-Feb-11 18:00N 05°38' E 000°01'0 0.0
2018-Feb-11 17:30N 05°38' E 000°01'0 0.0
2018-Feb-11 17:00N 05°38' E 000°01'0 0.0
2018-Feb-11 16:30N 05°38' E 000°01'0 0.0
2018-Feb-11 16:00N 05°38' E 000°01'0 0.4
2018-Feb-11 15:30N 05°38' E 000°01'2 3.6
2018-Feb-11 15:00N 05°38' E 000°03'2 4.5
2018-Feb-11 14:30N 05°36' E 000°04'3 5.1
2018-Feb-11 14:00N 05°34' E 000°05'4 8.6
2018-Feb-11 13:30N 05°30' E 000°08'510.4
2018-Feb-11 13:00N 05°26' E 000°11'612.9
2018-Feb-11 12:30N 05°21' E 000°15'612.5
2018-Feb-11 12:00N 05°16' E 000°19'612.4
2018-Feb-11 11:30N 05°11' E 000°22'  

Dump ship's entire track history